createdAt,value
2022-11-12T00:01:00.342Z,8.50
2022-11-12T00:03:27.269Z,4.80
2022-11-12T00:05:54.497Z,8.47
2022-11-12T00:08:21.878Z,7.53
2022-11-12T00:10:48.893Z,6.57
2022-11-12T00:13:15.861Z,8.37
2022-11-12T00:15:42.594Z,9.43
2022-11-12T00:18:09.526Z,6.37
2022-11-12T00:20:36.388Z,10.30
2022-11-12T00:23:03.339Z,6.00
2022-11-12T00:25:30.783Z,5.80
2022-11-12T00:28:05.914Z,7.10
2022-11-12T00:30:33.105Z,5.47
2022-11-12T00:33:04.760Z,8.57
2022-11-12T00:35:32.967Z,5.27
2022-11-12T00:38:00.747Z,6.73
2022-11-12T00:40:27.690Z,6.73
2022-11-12T00:42:54.601Z,9.70
2022-11-12T00:45:21.534Z,5.90
2022-11-12T00:47:48.530Z,7.30
2022-11-12T00:50:16.242Z,6.40
2022-11-12T00:52:43.426Z,5.53
2022-11-12T00:55:10.909Z,5.83
2022-11-12T00:57:37.718Z,5.20
2022-11-12T01:00:06.535Z,9.17
2022-11-12T01:02:38.619Z,6.70
2022-11-12T01:05:09.761Z,8.93
2022-11-12T01:07:36.538Z,6.83
2022-11-12T01:10:03.911Z,8.57
2022-11-12T01:12:34.098Z,5.00
2022-11-12T01:15:01.595Z,6.00
2022-11-12T01:17:28.951Z,5.47
2022-11-12T01:19:55.707Z,5.97
2022-11-12T01:22:22.421Z,4.53
2022-11-12T01:24:49.143Z,3.87
2022-11-12T01:27:15.905Z,6.97
2022-11-12T01:29:42.630Z,7.90
2022-11-12T01:32:09.398Z,8.20
2022-11-12T01:34:36.171Z,8.77
2022-11-12T01:37:02.946Z,5.77
2022-11-12T01:39:29.680Z,4.20
2022-11-12T01:41:56.404Z,4.37
2022-11-12T01:44:26.766Z,5.17
2022-11-12T01:46:56.253Z,8.03
2022-11-12T01:49:29.835Z,5.73
2022-11-12T01:51:59.215Z,4.13
2022-11-12T01:54:27.542Z,8.23
2022-11-12T01:56:56.950Z,8.37
2022-11-12T01:59:29.854Z,7.20
2022-11-12T02:01:56.827Z,5.17
2022-11-12T02:04:25.529Z,6.10
2022-11-12T02:06:53.916Z,5.77
2022-11-12T02:09:21.008Z,9.40
2022-11-12T02:11:47.730Z,7.83
2022-11-12T02:14:14.785Z,8.40
2022-11-12T02:16:44.325Z,7.83
2022-11-12T02:19:14.143Z,10.77
2022-11-12T02:21:40.851Z,12.47
2022-11-12T02:24:13.575Z,13.40
2022-11-12T02:26:47.714Z,10.63
2022-11-12T02:29:14.461Z,8.83
2022-11-12T02:31:41.261Z,9.80
2022-11-12T02:34:08.033Z,13.43
2022-11-12T02:36:34.914Z,13.80
2022-11-12T02:39:02.130Z,9.50
2022-11-12T02:41:28.945Z,12.77
2022-11-12T02:43:55.650Z,12.83
2022-11-12T02:46:22.744Z,14.33
2022-11-12T02:48:49.463Z,11.77
2022-11-12T02:51:16.151Z,12.83
2022-11-12T02:53:42.923Z,11.07
2022-11-12T02:56:09.796Z,15.27
2022-11-12T02:58:36.491Z,13.43
2022-11-12T03:01:03.261Z,9.87
2022-11-12T03:03:29.980Z,10.80
2022-11-12T03:05:59.301Z,12.57
2022-11-12T03:08:27.142Z,13.07
2022-11-12T03:10:54.996Z,12.23
2022-11-12T03:13:22.163Z,13.70
2022-11-12T03:15:49.032Z,14.20
2022-11-12T03:18:16.592Z,10.00
2022-11-12T03:20:43.351Z,11.83
2022-11-12T03:23:11.521Z,11.00
2022-11-12T03:25:38.356Z,11.60
2022-11-12T03:28:08.662Z,13.23
2022-11-12T03:30:38.016Z,11.67
2022-11-12T03:33:06.082Z,10.70
2022-11-12T03:35:33.839Z,11.90
2022-11-12T03:38:00.791Z,12.17
2022-11-12T03:40:28.219Z,17.40
2022-11-12T03:42:55.201Z,13.37
2022-11-12T03:45:23.534Z,14.60
2022-11-12T03:47:53.134Z,14.30
2022-11-12T03:50:21.553Z,14.70
2022-11-12T03:52:50.279Z,17.57
2022-11-12T03:55:19.201Z,17.83
2022-11-12T03:57:48.805Z,13.57
2022-11-12T04:00:16.429Z,18.27
2022-11-12T04:02:44.343Z,22.30
2022-11-12T04:05:29.773Z,16.83
2022-11-12T04:08:20.131Z,14.77
2022-11-12T04:10:47.213Z,16.17
2022-11-12T04:13:29.041Z,18.73
2022-11-12T04:16:52.015Z,14.60
2022-11-12T04:19:37.133Z,17.07
2022-11-12T04:22:10.486Z,13.87
2022-11-12T04:25:01.320Z,14.57
2022-11-12T04:27:30.758Z,13.37
2022-11-12T04:30:16.188Z,19.53
2022-11-12T04:32:52.909Z,17.00
2022-11-12T04:35:19.758Z,16.93
2022-11-12T04:37:46.704Z,16.93
2022-11-12T04:40:45.897Z,18.80
2022-11-12T04:43:34.514Z,17.47
2022-11-12T04:46:03.050Z,20.93
2022-11-12T04:48:30.514Z,20.13
2022-11-12T04:50:59.724Z,19.77
2022-11-12T04:53:27.520Z,17.67
2022-11-12T04:55:56.293Z,20.53
2022-11-12T04:58:23.850Z,21.43
2022-11-12T05:00:51.264Z,20.00
2022-11-12T05:03:18.374Z,19.03
2022-11-12T05:05:45.230Z,17.47
2022-11-12T05:08:12.030Z,21.37
2022-11-12T05:10:38.987Z,20.73
2022-11-12T05:13:05.670Z,24.60
2022-11-12T05:15:32.364Z,22.23
2022-11-12T05:17:59.130Z,22.07
2022-11-12T05:20:25.936Z,22.23
2022-11-12T05:23:05.493Z,24.03
2022-11-12T05:25:34.360Z,20.90
2022-11-12T05:28:01.058Z,25.07
2022-11-12T05:30:27.752Z,22.60
2022-11-12T05:32:54.571Z,23.87
2022-11-12T05:35:21.309Z,22.13
2022-11-12T05:37:48.003Z,27.73
2022-11-12T05:40:14.779Z,23.83
2022-11-12T05:42:41.486Z,22.97
2022-11-12T05:45:08.857Z,23.87
2022-11-12T05:47:35.567Z,25.17
2022-11-12T05:50:02.278Z,26.40
2022-11-12T05:52:28.966Z,21.40
2022-11-12T05:54:55.665Z,24.77
2022-11-12T05:57:22.421Z,23.10
2022-11-12T05:59:49.174Z,24.80
2022-11-12T06:02:15.901Z,28.60
2022-11-12T06:04:42.727Z,22.30
2022-11-12T06:07:09.620Z,23.67
2022-11-12T06:09:36.414Z,26.43
2022-11-12T06:12:06.284Z,24.20
2022-11-12T06:14:33.444Z,27.20
2022-11-12T06:17:00.176Z,25.67
2022-11-12T06:19:26.856Z,21.60
2022-11-12T06:21:53.606Z,23.07
2022-11-12T06:24:20.520Z,26.30
2022-11-12T06:26:47.229Z,26.33
2022-11-12T06:29:13.974Z,23.57
2022-11-12T06:31:40.789Z,25.70
2022-11-12T06:34:07.614Z,26.13
2022-11-12T06:36:35.127Z,23.13
2022-11-12T06:39:01.873Z,21.83
2022-11-12T06:41:28.594Z,26.40
2022-11-12T06:43:55.326Z,26.20
2022-11-12T06:46:22.119Z,22.77
2022-11-12T06:48:48.898Z,25.20
2022-11-12T06:51:20.829Z,24.90
2022-11-12T06:53:48.385Z,21.20
2022-11-12T06:56:15.979Z,25.17
2022-11-12T06:58:43.182Z,22.50
2022-11-12T07:01:17.499Z,22.37
2022-11-12T07:03:44.973Z,22.13
2022-11-12T07:06:14.582Z,22.00
2022-11-12T07:08:42.852Z,21.40
2022-11-12T07:11:10.920Z,21.73
2022-11-12T07:13:37.963Z,18.77
2022-11-12T07:16:07.401Z,19.97
2022-11-12T07:18:35.230Z,27.03
2022-11-12T07:21:07.346Z,19.33
2022-11-12T07:23:36.767Z,21.60
2022-11-12T07:26:05.313Z,22.03
2022-11-12T07:28:32.191Z,22.97
2022-11-12T07:31:04.155Z,24.27
2022-11-12T07:33:31.433Z,21.33
2022-11-12T07:36:00.244Z,24.33
2022-11-12T07:38:28.645Z,22.27
2022-11-12T07:41:21.673Z,22.10
2022-11-12T07:43:50.384Z,23.10
2022-11-12T07:46:23.668Z,20.30
2022-11-12T07:48:51.341Z,22.57
2022-11-12T07:51:23.865Z,26.07
2022-11-12T07:53:58.754Z,24.47
2022-11-12T07:56:27.732Z,23.03
2022-11-12T07:58:54.628Z,22.10
2022-11-12T08:01:35.265Z,22.93
2022-11-12T08:04:04.605Z,21.20
2022-11-12T08:06:31.952Z,24.37
2022-11-12T08:09:00.766Z,20.07
2022-11-12T08:11:27.946Z,20.03
2022-11-12T08:13:54.844Z,20.77
2022-11-12T08:16:21.683Z,19.00
2022-11-12T08:18:48.702Z,21.23
2022-11-12T08:21:16.940Z,20.80
2022-11-12T08:23:44.396Z,19.80
2022-11-12T08:26:13.727Z,22.97
2022-11-12T08:28:41.100Z,18.27
2022-11-12T08:31:09.636Z,17.63
2022-11-12T08:33:38.883Z,16.77
2022-11-12T08:36:08.296Z,17.27
2022-11-12T08:38:35.550Z,15.83
2022-11-12T08:41:04.618Z,21.57
2022-11-12T08:43:31.478Z,15.67
2022-11-12T08:46:00.165Z,13.90
2022-11-12T08:48:28.632Z,14.50
2022-11-12T08:50:56.332Z,13.83
2022-11-12T08:53:24.606Z,14.87
2022-11-12T08:55:57.677Z,13.67
2022-11-12T08:58:25.805Z,13.37
2022-11-12T09:00:53.636Z,13.23
2022-11-12T09:03:23.619Z,13.10
2022-11-12T09:05:50.972Z,12.50
2022-11-12T09:08:20.863Z,12.33
2022-11-12T09:10:48.715Z,12.60
2022-11-12T09:13:17.229Z,12.03
2022-11-12T09:15:44.749Z,10.13
2022-11-12T09:18:14.975Z,12.33
2022-11-12T09:20:42.044Z,12.70
2022-11-12T09:23:11.940Z,11.57
2022-11-12T09:25:39.575Z,9.87
2022-11-12T09:28:14.346Z,12.00
2022-11-12T09:30:49.929Z,12.57
2022-11-12T09:33:18.980Z,11.10
2022-11-12T09:35:47.057Z,10.93
2022-11-12T09:38:15.305Z,9.87
2022-11-12T09:40:50.894Z,9.80
2022-11-12T09:43:34.334Z,11.60
2022-11-12T09:46:59.235Z,9.93
2022-11-12T09:49:32.819Z,10.63
2022-11-12T09:52:27.579Z,11.80
2022-11-12T09:55:38.895Z,10.67
2022-11-12T09:58:13.488Z,10.20
2022-11-12T10:00:45.186Z,8.63
2022-11-12T10:03:49.490Z,8.47
2022-11-12T10:06:21.013Z,10.67
2022-11-12T10:09:04.745Z,10.33
2022-11-12T10:12:02.854Z,10.10
2022-11-12T10:14:39.508Z,9.57
2022-11-12T10:17:20.698Z,13.80
2022-11-12T10:20:14.154Z,9.90
2022-11-12T10:23:05.932Z,10.00
2022-11-12T10:25:33.433Z,9.40
2022-11-12T10:28:08.606Z,10.10
2022-11-12T10:30:36.284Z,10.43
2022-11-12T10:33:03.537Z,11.13
2022-11-12T10:35:30.330Z,10.90
2022-11-12T10:38:06.637Z,12.53
2022-11-12T10:40:41.584Z,12.00
2022-11-12T10:43:17.538Z,11.87
2022-11-12T10:45:45.581Z,10.87
2022-11-12T10:48:28.946Z,11.73
2022-11-12T10:50:56.286Z,11.73
2022-11-12T10:53:34.900Z,12.17
2022-11-12T10:56:22.922Z,12.63
2022-11-12T10:59:09.948Z,11.83
2022-11-12T11:01:41.627Z,14.53
2022-11-12T11:04:37.941Z,13.27
2022-11-12T11:07:19.204Z,12.87
2022-11-12T11:10:01.997Z,11.43
2022-11-12T11:12:33.971Z,12.27
2022-11-12T11:15:19.258Z,11.83
2022-11-12T11:17:46.132Z,12.43
2022-11-12T11:20:24.096Z,13.10
2022-11-12T11:23:06.854Z,13.20
2022-11-12T11:25:36.733Z,10.70
2022-11-12T11:28:29.400Z,11.10
2022-11-12T11:31:21.014Z,11.13
2022-11-12T11:34:04.195Z,9.77
2022-11-12T11:36:47.575Z,11.43
2022-11-12T11:39:41.306Z,12.17
2022-11-12T11:42:34.841Z,11.93
2022-11-12T11:45:16.765Z,13.53
2022-11-12T11:48:01.555Z,11.43
2022-11-12T11:50:39.861Z,11.20
2022-11-12T11:53:26.255Z,11.90
2022-11-12T11:56:28.204Z,11.37
2022-11-12T11:59:22.451Z,12.30
2022-11-12T12:02:23.562Z,12.10
2022-11-12T12:04:55.510Z,10.83
2022-11-12T12:07:40.872Z,10.50
2022-11-12T12:10:30.332Z,12.17
2022-11-12T12:13:43.860Z,11.73
2022-11-12T12:16:33.864Z,14.10
2022-11-12T12:19:19.547Z,11.60
2022-11-12T12:21:50.343Z,11.63
2022-11-12T12:24:45.177Z,11.00
2022-11-12T12:27:16.321Z,12.63
2022-11-12T12:29:52.193Z,15.20
2022-11-12T12:32:41.936Z,13.83
2022-11-12T12:35:32.849Z,14.10
2022-11-12T12:38:05.484Z,12.10
2022-11-12T12:40:43.463Z,13.17
2022-11-12T12:43:22.028Z,11.87
2022-11-12T12:45:48.840Z,11.73
2022-11-12T12:48:17.783Z,14.17
2022-11-12T12:50:45.331Z,13.23
2022-11-12T12:53:14.986Z,12.47
2022-11-12T12:55:50.656Z,11.67
2022-11-12T12:58:23.239Z,12.27
2022-11-12T13:00:57.275Z,12.13
2022-11-12T13:03:43.115Z,10.77
2022-11-12T13:06:38.368Z,10.80
2022-11-12T13:09:06.687Z,10.17
2022-11-12T13:12:01.097Z,10.47
2022-11-12T13:14:39.480Z,10.93
2022-11-12T13:17:09.268Z,12.13
2022-11-12T13:19:56.923Z,11.73
2022-11-12T13:22:24.133Z,11.13
2022-11-12T13:25:20.371Z,11.37
2022-11-12T13:27:47.123Z,10.73
2022-11-12T13:30:13.865Z,11.67
2022-11-12T13:32:47.005Z,13.30
2022-11-12T13:35:22.846Z,11.70
2022-11-12T13:38:13.378Z,10.67
2022-11-12T13:40:58.302Z,12.17
2022-11-12T13:43:47.415Z,9.83
2022-11-12T13:46:25.089Z,11.17
2022-11-12T13:49:00.256Z,10.23
2022-11-12T13:51:39.010Z,11.57
2022-11-12T13:54:31.190Z,10.97
2022-11-12T13:57:14.529Z,12.27
2022-11-12T13:59:41.423Z,10.97
2022-11-12T14:02:25.421Z,11.67
2022-11-12T14:04:53.806Z,11.63
2022-11-12T14:07:48.285Z,11.17
2022-11-12T14:10:30.145Z,12.93
2022-11-12T14:13:22.646Z,10.20
2022-11-12T14:16:15.645Z,11.27
2022-11-12T14:19:00.614Z,9.60
2022-11-12T14:21:27.325Z,12.07
2022-11-12T14:23:54.208Z,11.10
2022-11-12T14:26:53.472Z,10.83
2022-11-12T14:29:21.341Z,11.60
2022-11-12T14:32:03.104Z,9.70
2022-11-12T14:34:33.025Z,9.67
2022-11-12T14:37:01.299Z,11.53
2022-11-12T14:39:29.936Z,10.13
2022-11-12T14:41:59.343Z,10.13
2022-11-12T14:44:35.557Z,9.23
2022-11-12T14:47:02.975Z,10.57
2022-11-12T14:49:44.899Z,9.17
2022-11-12T14:52:28.798Z,10.60
2022-11-12T14:55:04.009Z,10.13
2022-11-12T14:57:32.133Z,11.07
2022-11-12T14:59:58.888Z,8.43
2022-11-12T15:02:47.314Z,10.03
2022-11-12T15:05:21.099Z,8.53
2022-11-12T15:08:01.447Z,9.03
2022-11-12T15:10:40.182Z,9.50
2022-11-12T15:13:26.997Z,10.60
2022-11-12T15:15:56.645Z,9.90
2022-11-12T15:18:27.095Z,8.80
2022-11-12T15:21:12.009Z,9.13
2022-11-12T15:24:01.583Z,9.57
2022-11-12T15:26:39.830Z,10.60
2022-11-12T15:29:20.994Z,9.57
2022-11-12T15:32:24.554Z,10.40
2022-11-12T15:34:52.251Z,10.63
2022-11-12T15:37:18.961Z,10.17
2022-11-12T15:39:49.535Z,9.83
2022-11-12T15:42:17.457Z,12.23
2022-11-12T15:44:45.371Z,10.10
2022-11-12T15:47:20.844Z,9.47
2022-11-12T15:49:52.250Z,11.10
2022-11-12T15:52:19.477Z,12.83
2022-11-12T15:54:46.359Z,10.93
2022-11-12T15:57:25.692Z,11.50
2022-11-12T16:00:08.085Z,10.87
2022-11-12T16:02:35.588Z,10.67
2022-11-12T16:05:02.411Z,10.73
2022-11-12T16:07:29.215Z,12.73
2022-11-12T16:09:56.006Z,12.23
2022-11-12T16:12:22.721Z,12.00
2022-11-12T16:14:49.510Z,12.23
2022-11-12T16:17:18.214Z,15.00
2022-11-12T16:19:45.014Z,16.17
2022-11-12T16:22:14.840Z,14.27
2022-11-12T16:24:45.209Z,12.07
2022-11-12T16:27:15.454Z,13.40
2022-11-12T16:29:42.270Z,12.53
2022-11-12T16:32:15.365Z,12.87
2022-11-12T16:34:42.114Z,14.13
2022-11-12T16:37:12.433Z,15.43
2022-11-12T16:39:39.334Z,13.77
2022-11-12T16:42:06.288Z,13.53
2022-11-12T16:44:33.078Z,14.00
2022-11-12T16:47:03.391Z,12.73
2022-11-12T16:49:33.263Z,13.93
2022-11-12T16:52:05.010Z,15.30
2022-11-12T16:54:31.767Z,18.20
2022-11-12T16:56:58.564Z,14.83
2022-11-12T16:59:25.309Z,16.43
2022-11-12T17:01:52.039Z,15.40
2022-11-12T17:04:18.846Z,17.50
2022-11-12T17:06:45.729Z,17.13
2022-11-12T17:09:12.774Z,18.33
2022-11-12T17:11:39.537Z,18.20
2022-11-12T17:14:06.810Z,19.77
2022-11-12T17:16:33.771Z,21.27
2022-11-12T17:19:02.131Z,20.90
2022-11-12T17:21:29.635Z,22.37
2022-11-12T17:23:57.975Z,25.83
2022-11-12T17:26:24.897Z,25.83
2022-11-12T17:28:59.223Z,26.87
2022-11-12T17:31:28.095Z,27.17
2022-11-12T17:33:55.085Z,27.90
2022-11-12T17:36:24.623Z,29.10
2022-11-12T17:38:59.506Z,28.33
2022-11-12T17:41:28.786Z,27.47
2022-11-12T17:43:57.236Z,30.47
2022-11-12T17:46:24.512Z,30.60
2022-11-12T17:48:51.654Z,31.57
2022-11-12T17:51:20.981Z,30.93
2022-11-12T17:53:48.519Z,30.50
2022-11-12T17:56:18.473Z,30.17
2022-11-12T17:58:46.001Z,32.70
2022-11-12T18:01:14.476Z,32.73
2022-11-12T18:03:45.706Z,30.70
2022-11-12T18:06:14.614Z,33.23
2022-11-12T18:08:42.345Z,32.87
2022-11-12T18:11:10.419Z,31.80
2022-11-12T18:13:37.133Z,33.20
2022-11-12T18:16:17.931Z,34.37
2022-11-12T18:18:44.975Z,36.97
2022-11-12T18:21:12.297Z,35.70
2022-11-12T18:23:40.343Z,34.60
2022-11-12T18:26:07.539Z,38.07
2022-11-12T18:28:34.635Z,36.77
2022-11-12T18:31:03.387Z,36.03
2022-11-12T18:33:30.729Z,35.83
2022-11-12T18:36:03.076Z,35.87
2022-11-12T18:38:33.489Z,36.80
2022-11-12T18:41:14.845Z,40.63
2022-11-12T18:43:42.138Z,37.77
2022-11-12T18:46:10.555Z,40.43
2022-11-12T18:48:39.027Z,39.77
2022-11-12T18:51:08.972Z,39.23
2022-11-12T18:53:36.990Z,38.70
2022-11-12T18:56:06.909Z,44.83
2022-11-12T18:58:35.536Z,39.77
2022-11-12T19:04:07.174Z,39.33
2022-11-12T19:06:33.875Z,39.17
2022-11-12T19:09:01.909Z,43.37
2022-11-12T19:11:28.898Z,45.57
2022-11-12T19:13:56.215Z,43.27
2022-11-12T19:16:23.692Z,46.33
2022-11-12T19:18:52.284Z,46.57
2022-11-12T19:21:24.220Z,42.47
2022-11-12T19:23:54.491Z,43.47
2022-11-12T19:26:23.270Z,52.00
2022-11-12T19:28:50.364Z,46.40
2022-11-12T19:31:23.076Z,47.57
2022-11-12T19:33:50.837Z,45.23
2022-11-12T19:36:22.845Z,45.00
2022-11-12T19:39:00.107Z,46.40
2022-11-12T19:41:26.912Z,42.40
2022-11-12T19:43:53.916Z,47.30
2022-11-12T19:46:20.930Z,44.33
2022-11-12T19:48:47.638Z,40.63
2022-11-12T19:51:14.487Z,43.43
2022-11-12T19:53:44.780Z,40.63
2022-11-12T19:56:13.970Z,47.90
2022-11-12T19:58:44.694Z,37.93
2022-11-12T20:01:14.368Z,35.93
2022-11-12T20:03:41.513Z,37.30
2022-11-12T20:06:11.516Z,36.50
2022-11-12T20:08:38.781Z,35.53
2022-11-12T20:11:05.775Z,34.23
2022-11-12T20:13:33.220Z,32.83
2022-11-12T20:16:04.974Z,32.67
2022-11-12T20:18:31.675Z,32.67
2022-11-12T20:20:58.485Z,32.67
2022-11-12T20:23:26.449Z,31.57
2022-11-12T20:25:53.934Z,32.03
2022-11-12T20:28:20.650Z,32.53
2022-11-12T20:30:47.587Z,32.17
2022-11-12T20:33:14.643Z,30.50
2022-11-12T20:35:41.633Z,28.83
2022-11-12T20:38:10.489Z,31.60
2022-11-12T20:40:37.323Z,30.00
2022-11-12T20:43:04.163Z,32.27
2022-11-12T20:45:30.955Z,32.73
2022-11-12T20:47:57.769Z,33.00
2022-11-12T20:50:24.656Z,33.10
2022-11-12T20:52:51.438Z,31.83
2022-11-12T20:55:18.530Z,34.70
2022-11-12T20:57:45.381Z,31.90
2022-11-12T21:00:14.286Z,35.10
2022-11-12T21:02:41.838Z,35.20
2022-11-12T21:05:08.937Z,36.50
2022-11-12T21:07:35.914Z,36.67
2022-11-12T21:10:03.526Z,47.73
2022-11-12T21:12:31.957Z,43.70
2022-11-12T21:14:58.920Z,45.10
2022-11-12T21:17:25.715Z,40.70
2022-11-12T21:19:52.497Z,47.67
2022-11-12T21:22:19.294Z,44.93
2022-11-12T21:24:46.041Z,44.07
2022-11-12T21:27:13.855Z,64.30
2022-11-12T21:29:40.565Z,44.07
2022-11-12T21:32:07.383Z,41.87
2022-11-12T21:34:34.177Z,47.17
2022-11-12T21:37:01.058Z,46.67
2022-11-12T21:39:27.855Z,45.30
2022-11-12T21:41:54.951Z,51.17
2022-11-12T21:44:21.815Z,49.00
2022-11-12T21:46:48.586Z,52.70
2022-11-12T21:49:15.349Z,55.93
2022-11-12T21:51:42.091Z,50.27
2022-11-12T21:54:09.323Z,52.00
2022-11-12T21:56:37.870Z,44.00
2022-11-12T21:59:04.766Z,44.13
2022-11-12T22:01:34.392Z,62.70
2022-11-12T22:04:04.458Z,51.33
2022-11-12T22:06:31.181Z,55.60
2022-11-12T22:08:58.377Z,68.73
2022-11-12T22:11:26.447Z,83.67
2022-11-12T22:13:53.435Z,102.43
2022-11-12T22:16:22.364Z,113.60
2022-11-12T22:18:51.363Z,70.40
2022-11-12T22:21:27.246Z,61.47
2022-11-12T22:23:56.204Z,62.07
2022-11-12T22:26:26.131Z,60.10
2022-11-12T22:28:54.221Z,64.80
2022-11-12T22:31:29.817Z,58.23
2022-11-12T22:33:58.217Z,59.07
2022-11-12T22:36:28.794Z,64.67
2022-11-12T22:38:56.187Z,61.03
2022-11-12T22:41:28.153Z,56.03
2022-11-12T22:44:00.130Z,59.43
2022-11-12T22:46:33.581Z,62.77
2022-11-12T22:49:01.266Z,64.40
2022-11-12T22:51:30.233Z,60.43
2022-11-12T22:54:03.082Z,70.90
2022-11-12T22:56:33.174Z,70.50
2022-11-12T22:59:00.778Z,64.53
2022-11-12T23:01:29.727Z,57.83
2022-11-12T23:03:59.113Z,76.27
2022-11-12T23:06:28.157Z,68.47
2022-11-12T23:08:55.877Z,51.67
2022-11-12T23:11:26.044Z,73.10
2022-11-12T23:13:54.246Z,57.27
2022-11-12T23:16:30.066Z,53.53
2022-11-12T23:18:57.529Z,83.13
2022-11-12T23:21:27.133Z,76.07
2022-11-12T23:23:56.057Z,120.07
2022-11-12T23:26:25.239Z,101.53
2022-11-12T23:28:52.798Z,109.80
2022-11-12T23:31:22.045Z,100.07
2022-11-12T23:33:54.277Z,100.63
2022-11-12T23:36:21.825Z,96.23
2022-11-12T23:38:48.889Z,138.47
2022-11-12T23:41:19.360Z,144.17
2022-11-12T23:43:46.264Z,173.77
2022-11-12T23:46:13.293Z,160.80
2022-11-12T23:48:40.738Z,160.87
2022-11-12T23:51:13.291Z,185.80
2022-11-12T23:53:40.614Z,140.40
2022-11-12T23:56:09.521Z,184.60
2022-11-12T23:58:37.576Z,171.13
